sensor_id;sensor_type;location;lat;lon;timestamp;P1;durP1;ratioP1;P2;durP2;ratioP2
15256;SDS011;7731;50.720;6.912;2022-09-09T00:00:46;3.13;;;1.35;;
15256;SDS011;7731;50.720;6.912;2022-09-09T00:03:24;3.35;;;1.13;;
15256;SDS011;7731;50.720;6.912;2022-09-09T00:06:06;3.67;;;1.20;;
15256;SDS011;7731;50.720;6.912;2022-09-09T00:08:53;2.65;;;1.30;;
15256;SDS011;7731;50.720;6.912;2022-09-09T00:11:36;3.03;;;1.20;;
15256;SDS011;7731;50.720;6.912;2022-09-09T00:14:14;3.45;;;1.30;;
15256;SDS011;7731;50.720;6.912;2022-09-09T00:16:55;2.35;;;1.20;;
15256;SDS011;7731;50.720;6.912;2022-09-09T00:19:33;1.85;;;1.17;;
15256;SDS011;7731;50.720;6.912;2022-09-09T00:22:17;1.92;;;1.05;;
15256;SDS011;7731;50.720;6.912;2022-09-09T00:24:53;3.63;;;1.02;;
15256;SDS011;7731;50.720;6.912;2022-09-09T00:27:26;2.80;;;1.17;;
15256;SDS011;7731;50.720;6.912;2022-09-09T00:30:12;3.10;;;1.25;;
15256;SDS011;7731;50.720;6.912;2022-09-09T00:32:49;2.17;;;1.10;;
15256;SDS011;7731;50.720;6.912;2022-09-09T00:35:25;3.28;;;1.20;;
15256;SDS011;7731;50.720;6.912;2022-09-09T00:38:00;2.63;;;1.20;;
15256;SDS011;7731;50.720;6.912;2022-09-09T00:40:45;1.90;;;1.10;;
15256;SDS011;7731;50.720;6.912;2022-09-09T00:43:26;2.13;;;1.08;;
15256;SDS011;7731;50.720;6.912;2022-09-09T00:46:03;3.63;;;1.35;;
15256;SDS011;7731;50.720;6.912;2022-09-09T00:49:00;2.78;;;1.17;;
15256;SDS011;7731;50.720;6.912;2022-09-09T00:51:48;3.80;;;1.20;;
15256;SDS011;7731;50.720;6.912;2022-09-09T00:54:38;3.60;;;1.27;;
15256;SDS011;7731;50.720;6.912;2022-09-09T00:57:25;5.13;;;1.27;;
15256;SDS011;7731;50.720;6.912;2022-09-09T01:00:00;1.65;;;1.00;;
15256;SDS011;7731;50.720;6.912;2022-09-09T01:02:52;2.75;;;1.13;;
15256;SDS011;7731;50.720;6.912;2022-09-09T01:05:36;5.10;;;1.40;;
15256;SDS011;7731;50.720;6.912;2022-09-09T01:08:20;4.00;;;1.50;;
15256;SDS011;7731;50.720;6.912;2022-09-09T01:11:10;3.97;;;1.45;;
15256;SDS011;7731;50.720;6.912;2022-09-09T01:13:56;1.83;;;1.20;;
15256;SDS011;7731;50.720;6.912;2022-09-09T01:16:33;2.55;;;1.20;;
15256;SDS011;7731;50.720;6.912;2022-09-09T01:19:03;3.30;;;1.38;;
15256;SDS011;7731;50.720;6.912;2022-09-09T01:21:46;2.38;;;1.20;;
15256;SDS011;7731;50.720;6.912;2022-09-09T01:24:31;3.88;;;1.20;;
15256;SDS011;7731;50.720;6.912;2022-09-09T01:27:14;3.35;;;1.40;;
15256;SDS011;7731;50.720;6.912;2022-09-09T01:29:46;2.28;;;1.20;;
15256;SDS011;7731;50.720;6.912;2022-09-09T01:35:10;2.47;;;1.23;;
15256;SDS011;7731;50.720;6.912;2022-09-09T01:37:51;2.72;;;1.25;;
15256;SDS011;7731;50.720;6.912;2022-09-09T01:40:22;2.58;;;1.20;;
15256;SDS011;7731;50.720;6.912;2022-09-09T01:42:58;4.90;;;1.45;;
15256;SDS011;7731;50.720;6.912;2022-09-09T01:45:29;4.55;;;1.58;;
15256;SDS011;7731;50.720;6.912;2022-09-09T01:48:00;3.47;;;1.40;;
15256;SDS011;7731;50.720;6.912;2022-09-09T01:50:39;2.85;;;1.30;;
15256;SDS011;7731;50.720;6.912;2022-09-09T01:53:15;3.13;;;1.42;;
15256;SDS011;7731;50.720;6.912;2022-09-09T01:55:56;3.50;;;1.20;;
15256;SDS011;7731;50.720;6.912;2022-09-09T01:58:44;3.65;;;1.48;;
15256;SDS011;7731;50.720;6.912;2022-09-09T02:01:39;4.18;;;1.50;;
15256;SDS011;7731;50.720;6.912;2022-09-09T02:04:28;3.75;;;1.27;;
15256;SDS011;7731;50.720;6.912;2022-09-09T02:07:09;4.18;;;1.45;;
15256;SDS011;7731;50.720;6.912;2022-09-09T02:10:02;3.60;;;1.40;;
15256;SDS011;7731;50.720;6.912;2022-09-09T02:12:47;3.10;;;1.40;;
15256;SDS011;7731;50.720;6.912;2022-09-09T02:15:26;3.95;;;1.40;;
15256;SDS011;7731;50.720;6.912;2022-09-09T02:18:07;2.80;;;1.35;;
15256;SDS011;7731;50.720;6.912;2022-09-09T02:20:42;2.67;;;1.33;;
15256;SDS011;7731;50.720;6.912;2022-09-09T02:23:15;4.30;;;1.30;;
15256;SDS011;7731;50.720;6.912;2022-09-09T02:25:46;5.07;;;1.70;;
15256;SDS011;7731;50.720;6.912;2022-09-09T02:28:20;4.80;;;1.65;;
15256;SDS011;7731;50.720;6.912;2022-09-09T02:30:57;4.75;;;1.50;;
15256;SDS011;7731;50.720;6.912;2022-09-09T02:33:30;4.60;;;1.45;;
15256;SDS011;7731;50.720;6.912;2022-09-09T02:36:08;2.28;;;1.20;;
15256;SDS011;7731;50.720;6.912;2022-09-09T02:38:43;3.95;;;1.30;;
15256;SDS011;7731;50.720;6.912;2022-09-09T02:41:19;3.97;;;1.55;;
15256;SDS011;7731;50.720;6.912;2022-09-09T02:43:55;4.68;;;1.55;;
15256;SDS011;7731;50.720;6.912;2022-09-09T02:46:35;2.97;;;1.42;;
15256;SDS011;7731;50.720;6.912;2022-09-09T02:49:25;4.43;;;1.75;;
15256;SDS011;7731;50.720;6.912;2022-09-09T02:52:11;5.25;;;1.50;;
15256;SDS011;7731;50.720;6.912;2022-09-09T02:54:45;3.00;;;1.40;;
15256;SDS011;7731;50.720;6.912;2022-09-09T02:57:30;3.35;;;1.25;;
15256;SDS011;7731;50.720;6.912;2022-09-09T03:00:03;4.97;;;1.70;;
15256;SDS011;7731;50.720;6.912;2022-09-09T03:02:38;6.55;;;1.60;;
15256;SDS011;7731;50.720;6.912;2022-09-09T03:05:08;5.68;;;1.63;;
15256;SDS011;7731;50.720;6.912;2022-09-09T03:07:39;2.88;;;1.20;;
15256;SDS011;7731;50.720;6.912;2022-09-09T03:10:09;5.60;;;1.50;;
15256;SDS011;7731;50.720;6.912;2022-09-09T03:12:39;4.68;;;1.67;;
15256;SDS011;7731;50.720;6.912;2022-09-09T03:15:12;3.88;;;1.48;;
15256;SDS011;7731;50.720;6.912;2022-09-09T03:17:45;4.72;;;1.42;;
15256;SDS011;7731;50.720;6.912;2022-09-09T03:20:16;4.18;;;1.60;;
15256;SDS011;7731;50.720;6.912;2022-09-09T03:22:49;3.63;;;1.70;;
15256;SDS011;7731;50.720;6.912;2022-09-09T03:25:20;2.90;;;1.33;;
15256;SDS011;7731;50.720;6.912;2022-09-09T03:27:55;3.42;;;1.83;;
15256;SDS011;7731;50.720;6.912;2022-09-09T03:30:26;4.35;;;1.65;;
15256;SDS011;7731;50.720;6.912;2022-09-09T03:33:18;5.60;;;1.65;;
15256;SDS011;7731;50.720;6.912;2022-09-09T03:35:49;5.45;;;1.40;;
15256;SDS011;7731;50.720;6.912;2022-09-09T03:38:19;2.85;;;1.50;;
15256;SDS011;7731;50.720;6.912;2022-09-09T03:40:53;3.42;;;1.70;;
15256;SDS011;7731;50.720;6.912;2022-09-09T03:43:26;5.22;;;1.67;;
15256;SDS011;7731;50.720;6.912;2022-09-09T03:45:59;3.03;;;1.33;;
15256;SDS011;7731;50.720;6.912;2022-09-09T03:48:33;2.70;;;1.23;;
15256;SDS011;7731;50.720;6.912;2022-09-09T03:51:03;3.15;;;1.42;;
15256;SDS011;7731;50.720;6.912;2022-09-09T03:53:33;4.13;;;1.40;;
15256;SDS011;7731;50.720;6.912;2022-09-09T03:56:05;3.72;;;1.38;;
15256;SDS011;7731;50.720;6.912;2022-09-09T03:58:36;4.35;;;1.80;;
15256;SDS011;7731;50.720;6.912;2022-09-09T04:01:08;2.72;;;1.40;;
15256;SDS011;7731;50.720;6.912;2022-09-09T04:03:46;6.97;;;1.73;;
15256;SDS011;7731;50.720;6.912;2022-09-09T04:06:24;3.75;;;1.50;;
15256;SDS011;7731;50.720;6.912;2022-09-09T04:08:55;5.60;;;1.50;;
15256;SDS011;7731;50.720;6.912;2022-09-09T04:11:25;6.43;;;1.30;;
15256;SDS011;7731;50.720;6.912;2022-09-09T04:13:55;3.95;;;1.60;;
15256;SDS011;7731;50.720;6.912;2022-09-09T04:16:25;4.75;;;1.55;;
15256;SDS011;7731;50.720;6.912;2022-09-09T04:18:58;3.95;;;1.40;;
15256;SDS011;7731;50.720;6.912;2022-09-09T04:21:30;3.03;;;1.02;;
15256;SDS011;7731;50.720;6.912;2022-09-09T04:24:03;2.60;;;1.30;;
15256;SDS011;7731;50.720;6.912;2022-09-09T04:26:34;2.97;;;1.70;;
15256;SDS011;7731;50.720;6.912;2022-09-09T04:29:06;4.28;;;1.73;;
15256;SDS011;7731;50.720;6.912;2022-09-09T04:31:36;3.75;;;1.65;;
15256;SDS011;7731;50.720;6.912;2022-09-09T04:34:12;4.03;;;1.73;;
15256;SDS011;7731;50.720;6.912;2022-09-09T04:36:47;2.70;;;1.20;;
15256;SDS011;7731;50.720;6.912;2022-09-09T04:39:17;5.13;;;1.70;;
15256;SDS011;7731;50.720;6.912;2022-09-09T04:41:48;2.72;;;1.55;;
15256;SDS011;7731;50.720;6.912;2022-09-09T04:44:19;3.58;;;1.60;;
15256;SDS011;7731;50.720;6.912;2022-09-09T04:46:49;2.78;;;1.40;;
15256;SDS011;7731;50.720;6.912;2022-09-09T04:49:27;3.22;;;1.50;;
15256;SDS011;7731;50.720;6.912;2022-09-09T04:51:57;2.47;;;1.38;;
15256;SDS011;7731;50.720;6.912;2022-09-09T04:54:28;2.58;;;1.33;;
15256;SDS011;7731;50.720;6.912;2022-09-09T04:56:58;4.15;;;1.30;;
15256;SDS011;7731;50.720;6.912;2022-09-09T04:59:28;3.53;;;1.42;;
15256;SDS011;7731;50.720;6.912;2022-09-09T05:02:01;2.15;;;1.30;;
15256;SDS011;7731;50.720;6.912;2022-09-09T05:04:37;5.18;;;1.65;;
15256;SDS011;7731;50.720;6.912;2022-09-09T05:07:13;4.50;;;1.48;;
15256;SDS011;7731;50.720;6.912;2022-09-09T05:09:43;1.65;;;1.30;;
15256;SDS011;7731;50.720;6.912;2022-09-09T05:12:14;3.50;;;1.27;;
15256;SDS011;7731;50.720;6.912;2022-09-09T05:14:45;3.92;;;1.60;;
15256;SDS011;7731;50.720;6.912;2022-09-09T05:17:21;5.00;;;1.60;;
15256;SDS011;7731;50.720;6.912;2022-09-09T05:19:56;3.13;;;1.40;;
15256;SDS011;7731;50.720;6.912;2022-09-09T05:22:26;4.00;;;1.58;;
15256;SDS011;7731;50.720;6.912;2022-09-09T05:24:56;3.30;;;1.42;;
15256;SDS011;7731;50.720;6.912;2022-09-09T05:27:27;4.32;;;1.40;;
15256;SDS011;7731;50.720;6.912;2022-09-09T05:30:04;3.00;;;1.40;;
15256;SDS011;7731;50.720;6.912;2022-09-09T05:32:38;3.63;;;1.60;;
15256;SDS011;7731;50.720;6.912;2022-09-09T05:35:17;2.10;;;1.42;;
15256;SDS011;7731;50.720;6.912;2022-09-09T05:37:50;4.75;;;1.55;;
15256;SDS011;7731;50.720;6.912;2022-09-09T05:40:23;3.33;;;1.20;;
15256;SDS011;7731;50.720;6.912;2022-09-09T05:42:59;7.43;;;1.65;;
15256;SDS011;7731;50.720;6.912;2022-09-09T05:45:30;3.70;;;1.42;;
15256;SDS011;7731;50.720;6.912;2022-09-09T05:48:01;4.25;;;1.50;;
15256;SDS011;7731;50.720;6.912;2022-09-09T05:50:36;5.05;;;1.60;;
15256;SDS011;7731;50.720;6.912;2022-09-09T05:53:16;3.60;;;1.48;;
15256;SDS011;7731;50.720;6.912;2022-09-09T05:55:47;3.53;;;1.70;;
15256;SDS011;7731;50.720;6.912;2022-09-09T05:58:20;6.35;;;1.90;;
15256;SDS011;7731;50.720;6.912;2022-09-09T06:00:50;2.80;;;1.50;;
15256;SDS011;7731;50.720;6.912;2022-09-09T06:03:27;4.00;;;1.50;;
15256;SDS011;7731;50.720;6.912;2022-09-09T06:06:14;5.40;;;1.63;;
15256;SDS011;7731;50.720;6.912;2022-09-09T06:08:47;4.60;;;1.40;;
15256;SDS011;7731;50.720;6.912;2022-09-09T06:11:21;6.90;;;1.50;;
15256;SDS011;7731;50.720;6.912;2022-09-09T06:13:57;4.70;;;1.50;;
15256;SDS011;7731;50.720;6.912;2022-09-09T06:16:28;4.78;;;1.77;;
15256;SDS011;7731;50.720;6.912;2022-09-09T06:19:00;5.40;;;1.95;;
15256;SDS011;7731;50.720;6.912;2022-09-09T06:21:34;5.28;;;1.95;;
15256;SDS011;7731;50.720;6.912;2022-09-09T06:24:06;4.22;;;1.77;;
15256;SDS011;7731;50.720;6.912;2022-09-09T06:26:38;9.45;;;1.85;;
15256;SDS011;7731;50.720;6.912;2022-09-09T06:29:12;2.90;;;1.20;;
15256;SDS011;7731;50.720;6.912;2022-09-09T06:31:42;6.15;;;1.77;;
15256;SDS011;7731;50.720;6.912;2022-09-09T06:34:14;3.40;;;1.50;;
15256;SDS011;7731;50.720;6.912;2022-09-09T06:36:46;5.47;;;2.05;;
15256;SDS011;7731;50.720;6.912;2022-09-09T06:39:18;6.45;;;1.70;;
15256;SDS011;7731;50.720;6.912;2022-09-09T06:41:48;3.28;;;1.45;;
15256;SDS011;7731;50.720;6.912;2022-09-09T06:44:30;7.57;;;1.70;;
15256;SDS011;7731;50.720;6.912;2022-09-09T06:47:03;3.70;;;1.50;;
15256;SDS011;7731;50.720;6.912;2022-09-09T06:49:36;5.82;;;1.60;;
15256;SDS011;7731;50.720;6.912;2022-09-09T06:52:15;4.40;;;1.77;;
15256;SDS011;7731;50.720;6.912;2022-09-09T06:54:46;3.28;;;1.40;;
15256;SDS011;7731;50.720;6.912;2022-09-09T06:57:16;4.20;;;1.42;;
15256;SDS011;7731;50.720;6.912;2022-09-09T07:00:02;5.97;;;1.80;;
15256;SDS011;7731;50.720;6.912;2022-09-09T07:02:34;4.60;;;1.83;;
15256;SDS011;7731;50.720;6.912;2022-09-09T07:05:06;6.78;;;1.65;;
15256;SDS011;7731;50.720;6.912;2022-09-09T07:07:40;4.63;;;2.03;;
15256;SDS011;7731;50.720;6.912;2022-09-09T07:10:10;9.60;;;2.08;;
15256;SDS011;7731;50.720;6.912;2022-09-09T07:12:40;6.53;;;1.30;;
15256;SDS011;7731;50.720;6.912;2022-09-09T07:15:11;5.18;;;1.35;;
15256;SDS011;7731;50.720;6.912;2022-09-09T07:17:41;7.30;;;1.70;;
15256;SDS011;7731;50.720;6.912;2022-09-09T07:20:11;4.72;;;1.50;;
15256;SDS011;7731;50.720;6.912;2022-09-09T07:22:44;5.18;;;1.73;;
15256;SDS011;7731;50.720;6.912;2022-09-09T07:25:14;5.00;;;1.67;;
15256;SDS011;7731;50.720;6.912;2022-09-09T07:27:48;7.95;;;1.60;;
15256;SDS011;7731;50.720;6.912;2022-09-09T07:30:18;3.78;;;1.40;;
15256;SDS011;7731;50.720;6.912;2022-09-09T07:32:53;5.38;;;1.40;;
15256;SDS011;7731;50.720;6.912;2022-09-09T07:35:37;4.32;;;1.60;;
15256;SDS011;7731;50.720;6.912;2022-09-09T07:38:10;4.32;;;1.33;;
15256;SDS011;7731;50.720;6.912;2022-09-09T07:40:41;5.72;;;1.50;;
15256;SDS011;7731;50.720;6.912;2022-09-09T07:43:11;7.43;;;1.40;;
15256;SDS011;7731;50.720;6.912;2022-09-09T07:45:56;5.85;;;1.70;;
15256;SDS011;7731;50.720;6.912;2022-09-09T07:48:27;6.38;;;1.67;;
15256;SDS011;7731;50.720;6.912;2022-09-09T07:51:07;4.22;;;1.75;;
15256;SDS011;7731;50.720;6.912;2022-09-09T07:53:44;4.60;;;1.50;;
15256;SDS011;7731;50.720;6.912;2022-09-09T07:56:24;4.88;;;1.42;;
15256;SDS011;7731;50.720;6.912;2022-09-09T07:58:56;3.92;;;1.52;;
15256;SDS011;7731;50.720;6.912;2022-09-09T08:01:46;3.50;;;1.27;;
15256;SDS011;7731;50.720;6.912;2022-09-09T08:04:22;3.50;;;1.27;;
15256;SDS011;7731;50.720;6.912;2022-09-09T08:06:55;5.03;;;1.63;;
15256;SDS011;7731;50.720;6.912;2022-09-09T08:09:31;3.85;;;1.48;;
15256;SDS011;7731;50.720;6.912;2022-09-09T08:12:02;3.35;;;1.55;;
15256;SDS011;7731;50.720;6.912;2022-09-09T08:14:38;5.65;;;1.48;;
15256;SDS011;7731;50.720;6.912;2022-09-09T08:17:08;3.97;;;1.27;;
15256;SDS011;7731;50.720;6.912;2022-09-09T08:19:38;3.88;;;1.52;;
15256;SDS011;7731;50.720;6.912;2022-09-09T08:22:08;3.53;;;1.30;;
15256;SDS011;7731;50.720;6.912;2022-09-09T08:24:45;4.13;;;1.27;;
15256;SDS011;7731;50.720;6.912;2022-09-09T08:27:16;3.80;;;1.10;;
15256;SDS011;7731;50.720;6.912;2022-09-09T08:29:46;4.70;;;1.38;;
15256;SDS011;7731;50.720;6.912;2022-09-09T08:32:16;3.35;;;1.40;;
15256;SDS011;7731;50.720;6.912;2022-09-09T08:34:46;5.05;;;1.45;;
15256;SDS011;7731;50.720;6.912;2022-09-09T08:37:26;5.07;;;1.40;;
15256;SDS011;7731;50.720;6.912;2022-09-09T08:39:59;4.07;;;1.27;;
15256;SDS011;7731;50.720;6.912;2022-09-09T08:42:35;5.30;;;1.40;;
15256;SDS011;7731;50.720;6.912;2022-09-09T08:45:18;4.32;;;1.35;;
15256;SDS011;7731;50.720;6.912;2022-09-09T08:48:13;5.53;;;1.67;;
15256;SDS011;7731;50.720;6.912;2022-09-09T08:51:02;5.00;;;1.40;;
15256;SDS011;7731;50.720;6.912;2022-09-09T08:53:38;5.70;;;1.35;;
15256;SDS011;7731;50.720;6.912;2022-09-09T08:56:16;2.95;;;1.27;;
15256;SDS011;7731;50.720;6.912;2022-09-09T08:58:53;3.72;;;1.10;;
15256;SDS011;7731;50.720;6.912;2022-09-09T09:04:30;3.20;;;1.25;;
15256;SDS011;7731;50.720;6.912;2022-09-09T09:07:21;1.98;;;1.00;;
15256;SDS011;7731;50.720;6.912;2022-09-09T09:10:13;4.60;;;1.40;;
15256;SDS011;7731;50.720;6.912;2022-09-09T09:13:14;3.47;;;1.10;;
15256;SDS011;7731;50.720;6.912;2022-09-09T09:15:49;3.38;;;1.35;;
15256;SDS011;7731;50.720;6.912;2022-09-09T09:18:24;3.22;;;1.08;;
15256;SDS011;7731;50.720;6.912;2022-09-09T09:20:58;4.35;;;1.58;;
15256;SDS011;7731;50.720;6.912;2022-09-09T09:23:42;2.50;;;0.90;;
15256;SDS011;7731;50.720;6.912;2022-09-09T09:26:23;2.75;;;1.33;;
15256;SDS011;7731;50.720;6.912;2022-09-09T09:29:07;2.53;;;1.20;;
15256;SDS011;7731;50.720;6.912;2022-09-09T09:31:42;3.75;;;1.30;;
15256;SDS011;7731;50.720;6.912;2022-09-09T09:34:25;3.05;;;1.10;;
15256;SDS011;7731;50.720;6.912;2022-09-09T09:36:55;3.58;;;1.17;;
15256;SDS011;7731;50.720;6.912;2022-09-09T09:39:28;6.53;;;1.10;;
15256;SDS011;7731;50.720;6.912;2022-09-09T09:42:22;1.63;;;0.80;;
15256;SDS011;7731;50.720;6.912;2022-09-09T09:45:01;2.20;;;1.00;;
15256;SDS011;7731;50.720;6.912;2022-09-09T09:47:57;3.33;;;0.90;;
15256;SDS011;7731;50.720;6.912;2022-09-09T09:50:33;5.55;;;1.30;;
15256;SDS011;7731;50.720;6.912;2022-09-09T09:53:04;2.17;;;1.00;;
15256;SDS011;7731;50.720;6.912;2022-09-09T09:55:50;2.90;;;1.10;;
15256;SDS011;7731;50.720;6.912;2022-09-09T09:58:35;2.25;;;1.27;;
15256;SDS011;7731;50.720;6.912;2022-09-09T10:01:24;3.53;;;1.13;;
15256;SDS011;7731;50.720;6.912;2022-09-09T10:04:00;3.47;;;1.10;;
15256;SDS011;7731;50.720;6.912;2022-09-09T10:06:45;4.00;;;1.35;;
15256;SDS011;7731;50.720;6.912;2022-09-09T10:09:22;3.30;;;1.30;;
15256;SDS011;7731;50.720;6.912;2022-09-09T10:12:03;3.20;;;1.17;;
15256;SDS011;7731;50.720;6.912;2022-09-09T10:14:50;3.65;;;1.00;;
15256;SDS011;7731;50.720;6.912;2022-09-09T10:17:36;3.45;;;1.40;;
15256;SDS011;7731;50.720;6.912;2022-09-09T10:20:23;3.60;;;1.33;;
15256;SDS011;7731;50.720;6.912;2022-09-09T10:23:16;5.10;;;1.10;;
15256;SDS011;7731;50.720;6.912;2022-09-09T10:26:10;4.28;;;1.10;;
15256;SDS011;7731;50.720;6.912;2022-09-09T10:29:02;2.28;;;1.13;;
15256;SDS011;7731;50.720;6.912;2022-09-09T10:31:55;1.90;;;1.05;;
15256;SDS011;7731;50.720;6.912;2022-09-09T10:34:52;2.10;;;1.00;;
15256;SDS011;7731;50.720;6.912;2022-09-09T10:37:33;1.83;;;0.90;;
15256;SDS011;7731;50.720;6.912;2022-09-09T10:40:31;2.20;;;1.02;;
15256;SDS011;7731;50.720;6.912;2022-09-09T10:43:11;2.95;;;1.10;;
15256;SDS011;7731;50.720;6.912;2022-09-09T10:46:00;2.88;;;1.38;;
15256;SDS011;7731;50.720;6.912;2022-09-09T10:48:45;3.85;;;1.20;;
15256;SDS011;7731;50.720;6.912;2022-09-09T10:51:51;2.35;;;1.13;;
15256;SDS011;7731;50.720;6.912;2022-09-09T10:54:35;3.30;;;1.10;;
15256;SDS011;7731;50.720;6.912;2022-09-09T10:57:31;3.42;;;1.05;;
15256;SDS011;7731;50.720;6.912;2022-09-09T11:00:22;3.58;;;1.02;;
15256;SDS011;7731;50.720;6.912;2022-09-09T11:02:55;3.05;;;1.15;;
15256;SDS011;7731;50.720;6.912;2022-09-09T11:05:35;1.77;;;1.00;;
15256;SDS011;7731;50.720;6.912;2022-09-09T11:08:15;2.58;;;1.10;;
15256;SDS011;7731;50.720;6.912;2022-09-09T11:10:57;2.03;;;0.93;;
15256;SDS011;7731;50.720;6.912;2022-09-09T11:13:35;2.20;;;1.00;;
15256;SDS011;7731;50.720;6.912;2022-09-09T11:16:22;1.88;;;1.00;;
15256;SDS011;7731;50.720;6.912;2022-09-09T11:19:00;2.35;;;1.10;;
15256;SDS011;7731;50.720;6.912;2022-09-09T11:21:40;2.70;;;1.00;;
15256;SDS011;7731;50.720;6.912;2022-09-09T11:24:21;3.67;;;1.00;;
15256;SDS011;7731;50.720;6.912;2022-09-09T11:27:01;2.15;;;1.15;;
15256;SDS011;7731;50.720;6.912;2022-09-09T11:29:57;2.92;;;1.08;;
15256;SDS011;7731;50.720;6.912;2022-09-09T11:33:16;3.58;;;1.10;;
15256;SDS011;7731;50.720;6.912;2022-09-09T11:36:16;3.50;;;0.80;;
15256;SDS011;7731;50.720;6.912;2022-09-09T11:42:48;2.15;;;0.90;;
15256;SDS011;7731;50.720;6.912;2022-09-09T11:45:32;4.40;;;1.38;;
15256;SDS011;7731;50.720;6.912;2022-09-09T11:48:05;2.83;;;1.08;;
15256;SDS011;7731;50.720;6.912;2022-09-09T11:50:58;3.05;;;1.15;;
15256;SDS011;7731;50.720;6.912;2022-09-09T11:53:47;3.38;;;1.20;;
15256;SDS011;7731;50.720;6.912;2022-09-09T11:56:28;4.22;;;1.00;;
15256;SDS011;7731;50.720;6.912;2022-09-09T11:59:19;4.78;;;1.17;;
15256;SDS011;7731;50.720;6.912;2022-09-09T12:01:55;2.58;;;1.17;;
15256;SDS011;7731;50.720;6.912;2022-09-09T12:04:30;4.55;;;1.10;;
15256;SDS011;7731;50.720;6.912;2022-09-09T12:07:28;3.88;;;1.08;;
15256;SDS011;7731;50.720;6.912;2022-09-09T12:10:05;3.03;;;0.98;;
15256;SDS011;7731;50.720;6.912;2022-09-09T12:13:13;3.28;;;1.10;;
15256;SDS011;7731;50.720;6.912;2022-09-09T12:15:53;3.50;;;1.30;;
15256;SDS011;7731;50.720;6.912;2022-09-09T12:18:31;1.90;;;0.90;;
15256;SDS011;7731;50.720;6.912;2022-09-09T12:21:05;2.83;;;1.20;;
15256;SDS011;7731;50.720;6.912;2022-09-09T12:23:48;2.53;;;1.00;;
15256;SDS011;7731;50.720;6.912;2022-09-09T12:26:27;2.17;;;1.00;;
15256;SDS011;7731;50.720;6.912;2022-09-09T12:29:20;3.20;;;0.82;;
15256;SDS011;7731;50.720;6.912;2022-09-09T12:32:05;2.10;;;1.20;;
15256;SDS011;7731;50.720;6.912;2022-09-09T12:34:41;2.83;;;1.10;;
15256;SDS011;7731;50.720;6.912;2022-09-09T12:37:23;2.70;;;1.00;;
15256;SDS011;7731;50.720;6.912;2022-09-09T12:40:00;2.58;;;1.20;;
15256;SDS011;7731;50.720;6.912;2022-09-09T12:42:39;3.95;;;0.93;;
15256;SDS011;7731;50.720;6.912;2022-09-09T12:45:20;3.30;;;1.25;;
15256;SDS011;7731;50.720;6.912;2022-09-09T12:47:53;4.45;;;1.20;;
15256;SDS011;7731;50.720;6.912;2022-09-09T12:50:29;3.67;;;1.27;;
15256;SDS011;7731;50.720;6.912;2022-09-09T12:53:02;3.33;;;1.15;;
15256;SDS011;7731;50.720;6.912;2022-09-09T12:55:49;1.77;;;0.93;;
15256;SDS011;7731;50.720;6.912;2022-09-09T12:58:24;3.42;;;1.45;;
15256;SDS011;7731;50.720;6.912;2022-09-09T13:01:02;4.18;;;1.05;;
15256;SDS011;7731;50.720;6.912;2022-09-09T13:03:41;2.95;;;0.93;;
15256;SDS011;7731;50.720;6.912;2022-09-09T13:06:18;1.50;;;0.75;;
15256;SDS011;7731;50.720;6.912;2022-09-09T13:08:55;3.83;;;1.00;;
15256;SDS011;7731;50.720;6.912;2022-09-09T13:11:29;4.95;;;1.20;;
15256;SDS011;7731;50.720;6.912;2022-09-09T13:14:12;2.00;;;0.95;;
15256;SDS011;7731;50.720;6.912;2022-09-09T13:16:57;2.60;;;1.08;;
15256;SDS011;7731;50.720;6.912;2022-09-09T13:19:32;2.85;;;1.25;;
15256;SDS011;7731;50.720;6.912;2022-09-09T13:22:12;3.10;;;1.20;;
15256;SDS011;7731;50.720;6.912;2022-09-09T13:24:58;2.08;;;0.88;;
15256;SDS011;7731;50.720;6.912;2022-09-09T13:27:32;2.90;;;0.90;;
15256;SDS011;7731;50.720;6.912;2022-09-09T13:30:19;2.10;;;0.85;;
15256;SDS011;7731;50.720;6.912;2022-09-09T13:33:05;1.55;;;0.68;;
15256;SDS011;7731;50.720;6.912;2022-09-09T13:35:52;1.50;;;0.80;;
15256;SDS011;7731;50.720;6.912;2022-09-09T13:38:27;3.72;;;1.20;;
15256;SDS011;7731;50.720;6.912;2022-09-09T13:41:02;2.60;;;0.90;;
15256;SDS011;7731;50.720;6.912;2022-09-09T13:43:36;4.28;;;1.40;;
15256;SDS011;7731;50.720;6.912;2022-09-09T13:46:22;4.15;;;2.53;;
15256;SDS011;7731;50.720;6.912;2022-09-09T13:49:17;2.88;;;1.90;;
15256;SDS011;7731;50.720;6.912;2022-09-09T13:54:52;2.17;;;1.02;;
15256;SDS011;7731;50.720;6.912;2022-09-09T13:57:25;1.38;;;0.80;;
15256;SDS011;7731;50.720;6.912;2022-09-09T13:59:58;1.65;;;0.80;;
15256;SDS011;7731;50.720;6.912;2022-09-09T14:02:31;2.28;;;0.70;;
15256;SDS011;7731;50.720;6.912;2022-09-09T14:05:04;2.00;;;0.80;;
15256;SDS011;7731;50.720;6.912;2022-09-09T14:07:41;2.17;;;0.85;;
15256;SDS011;7731;50.720;6.912;2022-09-09T14:10:18;1.40;;;0.73;;
15256;SDS011;7731;50.720;6.912;2022-09-09T14:12:49;1.20;;;0.60;;
15256;SDS011;7731;50.720;6.912;2022-09-09T14:15:21;6.20;;;0.73;;
15256;SDS011;7731;50.720;6.912;2022-09-09T14:17:53;1.85;;;0.80;;
15256;SDS011;7731;50.720;6.912;2022-09-09T14:20:27;2.03;;;0.70;;
15256;SDS011;7731;50.720;6.912;2022-09-09T14:23:00;2.67;;;0.75;;
15256;SDS011;7731;50.720;6.912;2022-09-09T14:25:31;1.30;;;0.65;;
15256;SDS011;7731;50.720;6.912;2022-09-09T14:28:01;2.25;;;0.73;;
15256;SDS011;7731;50.720;6.912;2022-09-09T14:30:31;1.00;;;0.55;;
15256;SDS011;7731;50.720;6.912;2022-09-09T14:33:08;1.33;;;0.82;;
15256;SDS011;7731;50.720;6.912;2022-09-09T14:35:44;2.65;;;0.68;;
15256;SDS011;7731;50.720;6.912;2022-09-09T14:38:15;1.92;;;0.77;;
15256;SDS011;7731;50.720;6.912;2022-09-09T14:40:45;2.10;;;0.85;;
15256;SDS011;7731;50.720;6.912;2022-09-09T14:43:15;1.42;;;0.70;;
15256;SDS011;7731;50.720;6.912;2022-09-09T14:45:46;3.58;;;0.90;;
15256;SDS011;7731;50.720;6.912;2022-09-09T14:48:19;1.38;;;0.80;;
15256;SDS011;7731;50.720;6.912;2022-09-09T14:50:54;1.90;;;0.80;;
15256;SDS011;7731;50.720;6.912;2022-09-09T14:53:27;1.52;;;0.70;;
15256;SDS011;7731;50.720;6.912;2022-09-09T14:56:02;1.67;;;0.68;;
15256;SDS011;7731;50.720;6.912;2022-09-09T14:58:34;1.80;;;0.70;;
15256;SDS011;7731;50.720;6.912;2022-09-09T15:01:05;1.88;;;0.80;;
15256;SDS011;7731;50.720;6.912;2022-09-09T15:03:38;1.15;;;0.70;;
15256;SDS011;7731;50.720;6.912;2022-09-09T15:06:16;1.55;;;0.85;;
15256;SDS011;7731;50.720;6.912;2022-09-09T15:08:47;1.52;;;0.70;;
15256;SDS011;7731;50.720;6.912;2022-09-09T15:11:25;2.20;;;0.75;;
15256;SDS011;7731;50.720;6.912;2022-09-09T15:13:58;0.98;;;0.70;;
15256;SDS011;7731;50.720;6.912;2022-09-09T15:16:28;1.48;;;0.75;;
15256;SDS011;7731;50.720;6.912;2022-09-09T15:18:59;1.65;;;0.80;;
15256;SDS011;7731;50.720;6.912;2022-09-09T15:21:34;3.83;;;1.05;;
15256;SDS011;7731;50.720;6.912;2022-09-09T15:24:06;7.38;;;1.50;;
15256;SDS011;7731;50.720;6.912;2022-09-09T15:26:42;3.25;;;1.27;;
15256;SDS011;7731;50.720;6.912;2022-09-09T15:29:12;4.68;;;1.65;;
15256;SDS011;7731;50.720;6.912;2022-09-09T15:31:43;2.78;;;1.00;;
15256;SDS011;7731;50.720;6.912;2022-09-09T15:34:13;6.85;;;1.10;;
15256;SDS011;7731;50.720;6.912;2022-09-09T15:36:48;4.20;;;1.10;;
15256;SDS011;7731;50.720;6.912;2022-09-09T15:39:18;4.10;;;1.58;;
15256;SDS011;7731;50.720;6.912;2022-09-09T15:41:49;5.82;;;1.50;;
15256;SDS011;7731;50.720;6.912;2022-09-09T15:44:19;4.25;;;1.50;;
15256;SDS011;7731;50.720;6.912;2022-09-09T15:46:52;4.55;;;1.45;;
15256;SDS011;7731;50.720;6.912;2022-09-09T15:49:23;3.35;;;1.52;;
15256;SDS011;7731;50.720;6.912;2022-09-09T15:52:00;4.22;;;1.40;;
15256;SDS011;7731;50.720;6.912;2022-09-09T15:54:32;2.38;;;1.10;;
15256;SDS011;7731;50.720;6.912;2022-09-09T15:57:10;2.78;;;1.40;;
15256;SDS011;7731;50.720;6.912;2022-09-09T15:59:47;2.40;;;1.20;;
15256;SDS011;7731;50.720;6.912;2022-09-09T16:02:20;2.13;;;1.10;;
15256;SDS011;7731;50.720;6.912;2022-09-09T16:04:59;2.60;;;1.40;;
15256;SDS011;7731;50.720;6.912;2022-09-09T16:07:32;2.28;;;1.23;;
15256;SDS011;7731;50.720;6.912;2022-09-09T16:10:02;2.42;;;1.27;;
15256;SDS011;7731;50.720;6.912;2022-09-09T16:12:47;3.38;;;1.20;;
15256;SDS011;7731;50.720;6.912;2022-09-09T16:15:20;1.90;;;0.93;;